Time;durP1;ratioP1;P1;durP2;ratioP2;P2;SDS_P1;SDS_P2;PMS_P1;PMS_P2;Temp;Humidity;BMP_temperature;BMP_pressure;BME280_temperature;BME280_humidity;BME280_pressure;Samples;Min_cycle;Max_cycle;Signal;HPM_P1;HPM_P2
2021/05/11 00:02:42;;;;;;;13.30;8.10;;;;;;;;;;5033972;28;20045;-63
2021/05/11 00:05:29;;;;;;;17.08;9.07;;;;;;;;;;5034682;28;20503;-63
2021/05/11 00:08:15;;;;;;;14.38;8.20;;;;;;;;;;5034218;28;20057;-64
2021/05/11 00:11:00;;;;;;;15.13;8.23;;;;;;;;;;5040040;28;20049;-64
2021/05/11 00:13:46;;;;;;;15.90;8.55;;;;;;;;;;5033465;28;20057;-64
2021/05/11 00:16:31;;;;;;;15.48;7.00;;;;;;;;;;5034271;28;20050;-64
2021/05/11 00:19:17;;;;;;;18.17;8.02;;;;;;;;;;5034237;28;20131;-65
2021/05/11 00:22:03;;;;;;;17.73;7.25;;;;;;;;;;5034415;28;20068;-64
2021/05/11 00:24:48;;;;;;;13.57;7.10;;;;;;;;;;5033430;28;20442;-65
2021/05/11 00:27:34;;;;;;;15.40;6.22;;;;;;;;;;5034118;28;20491;-65
2021/05/11 00:30:20;;;;;;;11.07;6.05;;;;;;;;;;5033982;28;20049;-64
2021/05/11 00:33:06;;;;;;;14.43;7.32;;;;;;;;;;5019243;28;20049;-64
2021/05/11 00:35:51;;;;;;;12.20;6.78;;;;;;;;;;5033433;28;20111;-64
2021/05/11 00:38:37;;;;;;;10.88;6.60;;;;;;;;;;5033904;28;20586;-64
2021/05/11 00:41:22;;;;;;;11.07;5.95;;;;;;;;;;5034003;28;20052;-64
2021/05/11 00:44:20;;;;;;;9.52;5.97;;;;;;;;;;5040716;28;20053;-65
2021/05/11 00:47:05;;;;;;;17.77;6.60;;;;;;;;;;5025649;28;20044;-64
2021/05/11 00:49:50;;;;;;;13.70;6.57;;;;;;;;;;5038045;28;20056;-63
2021/05/11 00:52:36;;;;;;;13.77;7.10;;;;;;;;;;5033986;28;20041;-64
2021/05/11 00:55:21;;;;;;;14.88;6.72;;;;;;;;;;5033029;28;20057;-63
2021/05/11 00:58:06;;;;;;;18.33;7.70;;;;;;;;;;5033903;28;20407;-63
2021/05/11 01:00:51;;;;;;;13.77;7.60;;;;;;;;;;5033541;28;20196;-64
2021/05/11 01:03:37;;;;;;;17.50;8.77;;;;;;;;;;5040266;28;20427;-64
2021/05/11 01:06:22;;;;;;;16.42;8.27;;;;;;;;;;5041090;28;20080;-64
2021/05/11 01:09:08;;;;;;;15.25;7.68;;;;;;;;;;5041064;28;20551;-65
2021/05/11 01:11:56;;;;;;;12.85;7.45;;;;;;;;;;5039371;28;20507;-64
2021/05/11 01:14:42;;;;;;;16.23;8.05;;;;;;;;;;5039301;28;20048;-64
2021/05/11 01:17:31;;;;;;;19.15;8.43;;;;;;;;;;5032601;28;20050;-64
2021/05/11 01:20:26;;;;;;;17.63;7.85;;;;;;;;;;5033019;28;20049;-63
2021/05/11 01:23:50;;;;;;;18.85;8.13;;;;;;;;;;5033104;28;20053;-63
2021/05/11 01:33:12;;;;;;;18.35;9.70;;;;;;;;;;5033091;28;20060;-62
2021/05/11 01:45:36;;;;;;;19.08;10.50;;;;;;;;;;5013040;28;20157;-62
2021/05/11 01:48:30;;;;;;;18.13;9.75;;;;;;;;;;5025591;28;20523;-62
2021/05/11 01:51:25;;;;;;;19.10;12.10;;;;;;;;;;5032502;28;20045;-62
2021/05/11 01:54:37;;;;;;;23.33;11.25;;;;;;;;;;5032612;28;20049;-64
2021/05/11 02:25:01;;;;;;;22.92;15.10;;;;;;;;;;5031945;28;20403;-63
2021/05/11 02:27:46;;;;;;;25.45;15.80;;;;;;;;;;5029623;28;20499;-63
2021/05/11 02:30:31;;;;;;;22.02;13.98;;;;;;;;;;5031649;28;20050;-63
2021/05/11 02:33:17;;;;;;;22.08;15.35;;;;;;;;;;5032170;28;20050;-64
2021/05/11 02:36:03;;;;;;;19.90;15.32;;;;;;;;;;5032215;28;20046;-64
2021/05/11 02:38:48;;;;;;;24.45;14.90;;;;;;;;;;5029612;28;20053;-64
2021/05/11 02:41:33;;;;;;;20.13;14.40;;;;;;;;;;5031827;28;20049;-64
2021/05/11 02:44:20;;;;;;;21.05;15.85;;;;;;;;;;5031951;28;20681;-64
2021/05/11 02:47:05;;;;;;;24.13;16.13;;;;;;;;;;5032029;28;20041;-62
2021/05/11 02:49:51;;;;;;;22.20;15.20;;;;;;;;;;5030786;28;20116;-63
2021/05/11 02:52:36;;;;;;;20.63;14.70;;;;;;;;;;5031929;28;20049;-63
2021/05/11 02:55:22;;;;;;;16.70;13.10;;;;;;;;;;5034207;28;20103;-64
2021/05/11 02:58:07;;;;;;;15.52;11.48;;;;;;;;;;5034115;28;20049;-64
2021/05/11 03:00:53;;;;;;;10.85;8.52;;;;;;;;;;5033828;28;20045;-65
2021/05/11 03:03:38;;;;;;;10.05;6.93;;;;;;;;;;5031988;28;20100;-64
2021/05/11 03:06:24;;;;;;;9.85;6.93;;;;;;;;;;5031917;28;20057;-64
2021/05/11 03:09:09;;;;;;;6.20;4.90;;;;;;;;;;5031678;28;20129;-64
2021/05/11 03:11:55;;;;;;;8.70;5.40;;;;;;;;;;5031647;28;20431;-64
2021/05/11 03:14:40;;;;;;;7.05;4.88;;;;;;;;;;5031815;28;20049;-63
2021/05/11 03:17:26;;;;;;;9.13;5.45;;;;;;;;;;5033649;28;20184;-63
2021/05/11 03:20:12;;;;;;;9.10;6.03;;;;;;;;;;5033127;28;20045;-64
2021/05/11 03:22:58;;;;;;;8.25;5.75;;;;;;;;;;5033897;28;20056;-63
2021/05/11 03:25:43;;;;;;;8.57;5.57;;;;;;;;;;5032120;28;20142;-62
2021/05/11 03:28:28;;;;;;;7.93;5.65;;;;;;;;;;5031346;28;20187;-63
2021/05/11 03:31:14;;;;;;;5.97;4.50;;;;;;;;;;5030710;28;20168;-64
2021/05/11 03:33:59;;;;;;;7.32;5.70;;;;;;;;;;5030953;28;20052;-64
2021/05/11 03:36:45;;;;;;;7.03;5.45;;;;;;;;;;5031425;28;20053;-64
2021/05/11 03:39:35;;;;;;;7.55;5.20;;;;;;;;;;5031131;28;20507;-64
2021/05/11 03:42:25;;;;;;;7.65;5.53;;;;;;;;;;5030467;28;20045;-64
2021/05/11 03:45:12;;;;;;;7.57;5.05;;;;;;;;;;5031344;28;20052;-64
2021/05/11 03:47:58;;;;;;;8.50;5.43;;;;;;;;;;5034988;28;20041;-64
2021/05/11 03:50:43;;;;;;;6.90;4.50;;;;;;;;;;5036070;28;20056;-63
2021/05/11 03:53:28;;;;;;;5.93;4.88;;;;;;;;;;5015624;28;20072;-64
2021/05/11 03:56:13;;;;;;;6.50;4.38;;;;;;;;;;5015246;28;20125;-63
2021/05/11 03:58:59;;;;;;;6.10;5.35;;;;;;;;;;5018272;28;20156;-64
2021/05/11 04:01:44;;;;;;;6.13;5.03;;;;;;;;;;5024298;28;20045;-63
2021/05/11 04:04:30;;;;;;;5.63;4.65;;;;;;;;;;5038855;28;20048;-65
2021/05/11 04:07:16;;;;;;;5.60;4.25;;;;;;;;;;5037525;28;20048;-64
2021/05/11 04:10:03;;;;;;;5.40;4.47;;;;;;;;;;5036061;28;20053;-64
2021/05/11 04:18:41;;;;;;;7.93;6.35;;;;;;;;;;5034295;28;20412;-63
2021/05/11 04:21:28;;;;;;;11.65;6.18;;;;;;;;;;5034270;28;20069;-62
2021/05/11 04:24:13;;;;;;;6.07;4.38;;;;;;;;;;5033631;28;20049;-64
2021/05/11 04:26:58;;;;;;;4.97;4.03;;;;;;;;;;5034429;28;20049;-64
2021/05/11 04:29:44;;;;;;;8.40;5.07;;;;;;;;;;5034075;28;20049;-62
2021/05/11 04:32:34;;;;;;;7.32;5.45;;;;;;;;;;5033247;28;20048;-63
2021/05/11 04:35:19;;;;;;;8.55;5.18;;;;;;;;;;5034118;28;20038;-63
2021/05/11 04:38:04;;;;;;;5.90;5.30;;;;;;;;;;5034339;28;20111;-62
2021/05/11 04:40:51;;;;;;;12.02;6.15;;;;;;;;;;5035856;28;20045;-65
2021/05/11 04:43:37;;;;;;;5.78;5.03;;;;;;;;;;5037461;28;20041;-64
2021/05/11 04:46:32;;;;;;;8.88;5.63;;;;;;;;;;5037161;28;20048;-64
2021/05/11 04:49:18;;;;;;;6.30;5.25;;;;;;;;;;5021053;28;20073;-64
2021/05/11 04:52:03;;;;;;;7.32;5.68;;;;;;;;;;5019141;28;20049;-63
2021/05/11 04:54:48;;;;;;;7.03;5.57;;;;;;;;;;5032848;28;20052;-63
2021/05/11 04:57:33;;;;;;;6.50;5.78;;;;;;;;;;5036621;28;20057;-65
2021/05/11 05:00:19;;;;;;;5.05;4.25;;;;;;;;;;5036460;28;20056;-64
2021/05/11 05:03:07;;;;;;;7.70;5.78;;;;;;;;;;5027573;28;20045;-64
2021/05/11 05:05:52;;;;;;;5.65;4.97;;;;;;;;;;5024351;28;20050;-64
2021/05/11 05:08:38;;;;;;;7.13;5.15;;;;;;;;;;5015602;28;20112;-64
2021/05/11 05:11:23;;;;;;;6.13;5.25;;;;;;;;;;5015598;28;20060;-64
2021/05/11 05:14:09;;;;;;;8.82;6.00;;;;;;;;;;5018604;28;20045;-64
2021/05/11 05:16:54;;;;;;;7.40;5.32;;;;;;;;;;5035562;28;20045;-63
2021/05/11 05:19:40;;;;;;;8.05;4.85;;;;;;;;;;5033027;28;20099;-63
2021/05/11 05:22:26;;;;;;;6.47;5.63;;;;;;;;;;5033148;28;20095;-63
2021/05/11 05:25:29;;;;;;;8.45;6.68;;;;;;;;;;5032238;28;20135;-63
2021/05/11 05:28:14;;;;;;;10.82;7.65;;;;;;;;;;5033483;28;20140;-64
2021/05/11 05:31:01;;;;;;;9.45;7.00;;;;;;;;;;5035556;28;20057;-65
2021/05/11 05:33:47;;;;;;;8.95;8.05;;;;;;;;;;5036109;28;20072;-64
2021/05/11 05:36:35;;;;;;;8.25;7.47;;;;;;;;;;5035321;28;20050;-64
2021/05/11 05:39:26;;;;;;;7.70;6.97;;;;;;;;;;5036326;28;20048;-64
2021/05/11 05:42:11;;;;;;;7.50;6.80;;;;;;;;;;5036054;28;20041;-65
2021/05/11 05:44:57;;;;;;;11.55;7.82;;;;;;;;;;5035077;28;20084;-63
2021/05/11 05:47:52;;;;;;;9.40;6.60;;;;;;;;;;5032665;28;20515;-63
2021/05/11 05:50:43;;;;;;;6.93;4.82;;;;;;;;;;5021802;28;20092;-64
2021/05/11 05:53:38;;;;;;;8.20;6.35;;;;;;;;;;5034526;28;20064;-64
2021/05/11 05:56:24;;;;;;;6.55;5.20;;;;;;;;;;5033863;28;20051;-64
2021/05/11 05:59:09;;;;;;;5.68;4.82;;;;;;;;;;5036762;28;20061;-64
2021/05/11 06:01:57;;;;;;;7.32;4.50;;;;;;;;;;5037023;28;20107;-64
2021/05/11 06:04:46;;;;;;;5.10;3.75;;;;;;;;;;5035664;28;20072;-62
2021/05/11 06:07:35;;;;;;;6.07;4.35;;;;;;;;;;5031469;28;20587;-62
2021/05/11 06:10:20;;;;;;;6.18;4.30;;;;;;;;;;5030604;28;20045;-62
2021/05/11 06:13:14;;;;;;;5.75;4.28;;;;;;;;;;5021196;28;20117;-62
2021/05/11 06:19:04;;;;;;;5.78;5.20;;;;;;;;;;5033538;28;20050;-63
2021/05/11 06:21:49;;;;;;;7.18;5.10;;;;;;;;;;5034350;28;20590;-64
2021/05/11 06:24:35;;;;;;;5.95;4.53;;;;;;;;;;5033305;28;20045;-61
2021/05/11 06:27:21;;;;;;;5.35;4.43;;;;;;;;;;5031301;28;20059;-64
2021/05/11 06:30:07;;;;;;;6.82;3.67;;;;;;;;;;5022525;28;20081;-64
2021/05/11 06:32:55;;;;;;;3.08;2.83;;;;;;;;;;5022702;28;20393;-63
2021/05/11 06:35:45;;;;;;;4.45;3.08;;;;;;;;;;5022796;28;20052;-63
2021/05/11 06:38:31;;;;;;;4.07;2.92;;;;;;;;;;5021254;28;20046;-63
2021/05/11 06:41:16;;;;;;;3.20;3.00;;;;;;;;;;5022460;28;20061;-63
2021/05/11 06:44:11;;;;;;;5.13;3.72;;;;;;;;;;5020805;28;20124;-63
2021/05/11 06:47:52;;;;;;;3.53;2.80;;;;;;;;;;5012930;28;20050;-62
2021/05/11 06:53:00;;;;;;;3.80;3.45;;;;;;;;;;5032222;28;20260;-64
2021/05/11 06:55:47;;;;;;;3.65;3.28;;;;;;;;;;5032198;28;20061;-64
2021/05/11 06:58:32;;;;;;;4.00;3.38;;;;;;;;;;5030521;28;20053;-64
2021/05/11 07:01:21;;;;;;;4.40;3.58;;;;;;;;;;5030233;28;20137;-63
2021/05/11 07:04:06;;;;;;;3.92;3.63;;;;;;;;;;5031822;28;20053;-62
2021/05/11 07:06:52;;;;;;;4.28;3.92;;;;;;;;;;5031835;28;20050;-63
2021/05/11 07:15:29;;;;;;;5.20;4.70;;;;;;;;;;5032901;28;20037;-64
2021/05/11 07:18:18;;;;;;;4.82;4.43;;;;;;;;;;5033622;28;20462;-63
2021/05/11 07:21:04;;;;;;;5.32;4.68;;;;;;;;;;5031485;28;20045;-63
2021/05/11 07:23:49;;;;;;;4.97;4.57;;;;;;;;;;5032331;28;20050;-64
2021/05/11 07:26:46;;;;;;;4.88;4.47;;;;;;;;;;5036100;28;20566;-65
2021/05/11 07:32:21;;;;;;;4.50;4.10;;;;;;;;;;5035539;28;20128;-64
2021/05/11 07:35:06;;;;;;;3.22;2.92;;;;;;;;;;5035372;28;20049;-64
2021/05/11 07:37:51;;;;;;;3.75;2.05;;;;;;;;;;5033502;28;20080;-64
2021/05/11 07:40:37;;;;;;;2.38;1.58;;;;;;;;;;5035120;28;20678;-64
2021/05/11 07:43:24;;;;;;;1.95;1.75;;;;;;;;;;5035068;28;20037;-64
2021/05/11 07:46:23;;;;;;;3.03;2.15;;;;;;;;;;5034347;28;20053;-64
2021/05/11 07:49:35;;;;;;;2.25;1.88;;;;;;;;;;5034784;28;20487;-64
2021/05/11 08:10:34;;;;;;;3.03;2.60;;;;;;;;;;5034406;28;20049;-64
2021/05/11 08:16:24;;;;;;;2.83;2.63;;;;;;;;;;5019973;28;20148;-63
2021/05/11 08:30:42;;;;;;;3.50;3.05;;;;;;;;;;5038092;28;20073;-64
2021/05/11 08:33:27;;;;;;;4.13;3.72;;;;;;;;;;5034922;28;20049;-62
2021/05/11 08:36:13;;;;;;;3.50;3.10;;;;;;;;;;5034124;28;20480;-64
2021/05/11 08:38:59;;;;;;;3.65;3.35;;;;;;;;;;5032980;28;20045;-64
2021/05/11 08:41:44;;;;;;;4.05;3.65;;;;;;;;;;5034090;28;20055;-63
2021/05/11 08:44:30;;;;;;;3.90;3.42;;;;;;;;;;5038949;28;20056;-65
2021/05/11 08:47:18;;;;;;;3.75;2.90;;;;;;;;;;5035913;28;20428;-65
2021/05/11 08:50:03;;;;;;;4.03;3.45;;;;;;;;;;5025905;28;20055;-64
2021/05/11 09:08:14;;;;;;;3.58;2.35;;;;;;;;;;5033391;28;20046;-64
2021/05/11 09:26:21;;;;;;;3.17;1.50;;;;;;;;;;5033246;28;20116;-64
2021/05/11 09:29:25;;;;;;;2.30;1.45;;;;;;;;;;5041566;28;20037;-64
2021/05/11 10:12:40;;;;;;;1.80;0.60;;;;;;;;;;5031474;28;20053;-64
2021/05/11 10:31:21;;;;;;;2.80;0.70;;;;;;;;;;5032185;28;20046;-65
2021/05/11 10:37:06;;;;;;;1.07;0.80;;;;;;;;;;5033853;28;20045;-64
2021/05/11 10:39:57;;;;;;;0.93;0.55;;;;;;;;;;5030978;28;20045;-65
2021/05/11 10:48:40;;;;;;;1.52;0.63;;;;;;;;;;5034983;28;20045;-66
2021/05/11 10:51:28;;;;;;;1.45;0.57;;;;;;;;;;5017655;28;20050;-65
2021/05/11 10:54:14;;;;;;;1.77;0.80;;;;;;;;;;5034691;28;20100;-66
2021/05/11 10:57:01;;;;;;;2.03;0.60;;;;;;;;;;5031046;28;20046;-64
2021/05/11 10:59:54;;;;;;;2.10;0.85;;;;;;;;;;5032879;28;20171;-66
2021/05/11 11:02:44;;;;;;;2.33;0.90;;;;;;;;;;5033741;28;20042;-64
2021/05/11 11:05:36;;;;;;;1.10;0.40;;;;;;;;;;5035131;28;20392;-64
2021/05/11 11:08:33;;;;;;;2.00;0.60;;;;;;;;;;5035681;28;20050;-65
2021/05/11 11:11:20;;;;;;;4.22;0.63;;;;;;;;;;5033737;28;20093;-65
2021/05/11 11:14:06;;;;;;;1.27;0.47;;;;;;;;;;5035139;28;20045;-63
2021/05/11 11:17:01;;;;;;;1.48;0.70;;;;;;;;;;5034641;28;20037;-63
2021/05/11 11:19:54;;;;;;;2.33;0.60;;;;;;;;;;5034515;28;20996;-63
2021/05/11 11:25:57;;;;;;;1.35;0.35;;;;;;;;;;5036709;28;20038;-65
2021/05/11 11:28:42;;;;;;;1.20;0.60;;;;;;;;;;5036468;28;20488;-65
2021/05/11 11:31:29;;;;;;;0.82;0.40;;;;;;;;;;5035245;28;20503;-64
2021/05/11 11:34:18;;;;;;;1.73;0.52;;;;;;;;;;5034741;28;20049;-64
2021/05/11 11:37:05;;;;;;;0.90;0.35;;;;;;;;;;5037640;28;20068;-64
2021/05/11 11:39:51;;;;;;;1.25;0.60;;;;;;;;;;5035839;28;20054;-65
2021/05/11 11:42:47;;;;;;;1.05;0.50;;;;;;;;;;5036483;28;20622;-66
2021/05/11 11:45:32;;;;;;;1.20;0.55;;;;;;;;;;5035926;28;20136;-65
2021/05/11 11:48:20;;;;;;;0.63;0.50;;;;;;;;;;5035408;28;20057;-65
2021/05/11 11:51:06;;;;;;;0.73;0.40;;;;;;;;;;5034932;28;20046;-64
2021/05/11 11:54:02;;;;;;;2.88;1.05;;;;;;;;;;5034273;28;20053;-65
2021/05/11 11:59:55;;;;;;;1.13;0.93;;;;;;;;;;5034678;28;20450;-64
2021/05/11 12:02:40;;;;;;;1.35;0.60;;;;;;;;;;5034893;28;20132;-65
2021/05/11 12:05:29;;;;;;;0.80;0.60;;;;;;;;;;5033242;28;20053;-65
2021/05/11 12:08:21;;;;;;;1.65;0.70;;;;;;;;;;5034263;28;20057;-66
2021/05/11 12:11:07;;;;;;;0.82;0.82;;;;;;;;;;5037074;28;20045;-66
2021/05/11 12:13:52;;;;;;;1.20;1.00;;;;;;;;;;5036399;28;20050;-66
2021/05/11 12:16:43;;;;;;;1.45;1.05;;;;;;;;;;5033088;28;20049;-64
2021/05/11 12:19:31;;;;;;;2.17;1.42;;;;;;;;;;5033979;28;20133;-63
2021/05/11 12:22:16;;;;;;;1.50;1.40;;;;;;;;;;5038509;28;20500;-66
2021/05/11 12:25:01;;;;;;;1.63;1.30;;;;;;;;;;5037834;28;20073;-65
2021/05/11 12:27:48;;;;;;;3.20;1.55;;;;;;;;;;5034212;28;20057;-64
2021/05/11 12:30:41;;;;;;;1.75;1.63;;;;;;;;;;5019058;28;20049;-64
2021/05/11 12:33:37;;;;;;;2.97;1.45;;;;;;;;;;5034212;28;20050;-65
2021/05/11 12:36:25;;;;;;;1.88;1.55;;;;;;;;;;5033216;28;20508;-65
2021/05/11 12:39:23;;;;;;;2.10;1.50;;;;;;;;;;5033273;28;20045;-65
2021/05/11 12:42:15;;;;;;;1.77;0.90;;;;;;;;;;5034104;28;20049;-65
2021/05/11 12:45:02;;;;;;;2.08;1.42;;;;;;;;;;5035587;28;20095;-65
2021/05/11 12:47:48;;;;;;;1.98;1.38;;;;;;;;;;5036896;28;20045;-65
2021/05/11 12:50:43;;;;;;;1.10;1.00;;;;;;;;;;5034451;28;20105;-64
2021/05/11 12:53:41;;;;;;;2.83;1.38;;;;;;;;;;5033904;28;20042;-64
2021/05/11 12:57:26;;;;;;;2.42;1.65;;;;;;;;;;5032117;28;20053;-65
2021/05/11 13:00:01;;;;;;;2.97;1.67;;;;;;;;;;5030692;28;20500;-65
2021/05/11 13:03:09;;;;;;;4.07;1.50;;;;;;;;;;5033582;28;20496;-63
2021/05/11 13:15:42;;;;;;;1.38;1.27;;;;;;;;;;5018540;28;20045;-64
2021/05/11 13:21:18;;;;;;;1.98;1.45;;;;;;;;;;5034469;28;20388;-64
2021/05/11 13:30:26;;;;;;;2.93;1.50;;;;;;;;;;5034267;28;20123;-66
2021/05/11 13:33:18;;;;;;;2.55;1.55;;;;;;;;;;5033844;28;20045;-65
2021/05/11 13:36:04;;;;;;;3.17;1.80;;;;;;;;;;5034545;28;20550;-66
2021/05/11 13:38:49;;;;;;;2.65;1.60;;;;;;;;;;5031184;28;20045;-64
2021/05/11 13:41:34;;;;;;;1.42;1.15;;;;;;;;;;5036867;28;20500;-64
2021/05/11 13:44:19;;;;;;;1.40;1.30;;;;;;;;;;5032837;28;20050;-64
2021/05/11 13:47:05;;;;;;;1.15;1.05;;;;;;;;;;5031836;28;20057;-64
2021/05/11 13:49:55;;;;;;;3.13;0.73;;;;;;;;;;5032239;28;20042;-64
2021/05/11 13:52:41;;;;;;;2.40;0.88;;;;;;;;;;5032722;28;20068;-65
2021/05/11 13:55:35;;;;;;;1.95;0.80;;;;;;;;;;5032789;28;20124;-64
2021/05/11 14:04:14;;;;;;;1.45;1.08;;;;;;;;;;5032391;28;20507;-64
2021/05/11 14:07:00;;;;;;;2.50;1.02;;;;;;;;;;5033550;28;20511;-65
2021/05/11 14:09:45;;;;;;;1.48;1.05;;;;;;;;;;5030103;28;20522;-65
2021/05/11 14:12:31;;;;;;;1.52;0.88;;;;;;;;;;5033715;28;20045;-65
2021/05/11 14:15:16;;;;;;;2.42;0.70;;;;;;;;;;5034022;28;20038;-64
2021/05/11 14:18:01;;;;;;;1.45;0.80;;;;;;;;;;5033343;28;20045;-65
2021/05/11 14:20:47;;;;;;;0.93;0.80;;;;;;;;;;5033454;28;20049;-65
2021/05/11 14:23:32;;;;;;;1.90;1.08;;;;;;;;;;5033212;28;20511;-65
2021/05/11 14:26:17;;;;;;;1.17;0.70;;;;;;;;;;5032181;28;20500;-63
2021/05/11 14:29:03;;;;;;;1.00;0.70;;;;;;;;;;5033154;28;20061;-64
2021/05/11 14:31:50;;;;;;;2.95;0.90;;;;;;;;;;5032080;28;20049;-64
2021/05/11 14:34:35;;;;;;;0.70;0.63;;;;;;;;;;5031928;28;20041;-64
2021/05/11 14:37:20;;;;;;;2.40;0.80;;;;;;;;;;5031284;28;20109;-64
2021/05/11 14:40:05;;;;;;;1.63;0.93;;;;;;;;;;5031801;28;20053;-64
2021/05/11 14:42:53;;;;;;;1.42;0.90;;;;;;;;;;5031977;28;20053;-65
2021/05/11 14:45:38;;;;;;;0.70;0.70;;;;;;;;;;5032107;28;20125;-65
2021/05/11 14:48:23;;;;;;;1.83;0.70;;;;;;;;;;5015207;28;20053;-63
2021/05/11 14:51:09;;;;;;;2.30;1.05;;;;;;;;;;5031689;28;20049;-64
2021/05/11 14:53:54;;;;;;;1.90;0.88;;;;;;;;;;5031606;28;20172;-63
2021/05/11 14:56:40;;;;;;;1.05;0.90;;;;;;;;;;5031066;28;20073;-64
2021/05/11 14:59:27;;;;;;;1.77;0.90;;;;;;;;;;5031547;28;20127;-65
2021/05/11 15:02:13;;;;;;;2.10;0.80;;;;;;;;;;5031567;28;20516;-65
2021/05/11 15:04:59;;;;;;;2.05;0.60;;;;;;;;;;5032032;28;20045;-64
2021/05/11 15:07:48;;;;;;;0.70;0.70;;;;;;;;;;5030118;28;20045;-65
2021/05/11 15:10:33;;;;;;;3.85;0.90;;;;;;;;;;5030980;28;20455;-65
2021/05/11 15:13:19;;;;;;;0.75;0.70;;;;;;;;;;5026363;28;20152;-64
2021/05/11 15:16:07;;;;;;;2.45;0.82;;;;;;;;;;5001320;28;20127;-64
2021/05/11 15:18:52;;;;;;;5.70;0.90;;;;;;;;;;5011492;28;20453;-65
2021/05/11 15:21:37;;;;;;;1.52;0.60;;;;;;;;;;5011341;28;20049;-64
2021/05/11 15:24:23;;;;;;;1.17;0.80;;;;;;;;;;5011747;28;20556;-65
2021/05/11 15:27:08;;;;;;;2.28;0.90;;;;;;;;;;5017074;28;20045;-65
2021/05/11 15:29:55;;;;;;;2.25;0.77;;;;;;;;;;5030081;28;20056;-64
2021/05/11 15:32:43;;;;;;;2.40;0.70;;;;;;;;;;5031484;28;20075;-65
2021/05/11 15:35:29;;;;;;;2.65;0.90;;;;;;;;;;5031898;28;20054;-65
2021/05/11 15:38:15;;;;;;;0.85;0.50;;;;;;;;;;5030694;28;20041;-65
2021/05/11 15:41:00;;;;;;;1.60;0.88;;;;;;;;;;5030854;28;20073;-65
2021/05/11 15:43:45;;;;;;;2.67;0.90;;;;;;;;;;5031691;28;20053;-65
2021/05/11 15:46:30;;;;;;;4.30;1.15;;;;;;;;;;5032669;28;20051;-64
2021/05/11 15:49:15;;;;;;;2.40;1.10;;;;;;;;;;5034628;28;20037;-65
2021/05/11 15:52:01;;;;;;;1.38;1.00;;;;;;;;;;5033624;28;20128;-64
2021/05/11 15:54:48;;;;;;;1.27;1.17;;;;;;;;;;5035027;28;20038;-64
2021/05/11 15:57:33;;;;;;;5.95;1.30;;;;;;;;;;5034948;28;20049;-64
2021/05/11 16:00:19;;;;;;;1.52;1.00;;;;;;;;;;5034150;28;20518;-64
2021/05/11 16:03:04;;;;;;;2.55;1.10;;;;;;;;;;5014926;28;20042;-64
2021/05/11 16:05:49;;;;;;;2.15;1.30;;;;;;;;;;5013971;28;20121;-64
2021/05/11 16:08:34;;;;;;;3.70;1.10;;;;;;;;;;5014671;28;20500;-65
2021/05/11 16:11:20;;;;;;;1.50;1.15;;;;;;;;;;5018903;28;20045;-65
2021/05/11 16:14:05;;;;;;;4.20;1.42;;;;;;;;;;5034533;28;20046;-64
2021/05/11 16:16:50;;;;;;;4.35;1.58;;;;;;;;;;5032190;28;20127;-65
2021/05/11 16:19:36;;;;;;;2.85;1.38;;;;;;;;;;5027932;28;20053;-65
2021/05/11 16:22:21;;;;;;;1.90;1.45;;;;;;;;;;5026549;28;20049;-64
2021/05/11 16:25:08;;;;;;;2.83;1.50;;;;;;;;;;5011757;28;20049;-63
2021/05/11 16:27:53;;;;;;;4.22;1.75;;;;;;;;;;5019845;28;20058;-63
2021/05/11 16:30:40;;;;;;;2.33;1.48;;;;;;;;;;5035351;28;20128;-63
2021/05/11 16:33:26;;;;;;;3.58;2.00;;;;;;;;;;5046789;28;20122;-62
2021/05/11 16:36:11;;;;;;;4.18;1.58;;;;;;;;;;5044163;28;20127;-63
2021/05/11 16:38:56;;;;;;;2.35;1.45;;;;;;;;;;5031641;28;20416;-62
2021/05/11 16:41:42;;;;;;;3.20;1.52;;;;;;;;;;5031719;28;20046;-63
2021/05/11 16:44:27;;;;;;;3.72;1.73;;;;;;;;;;5012066;28;20064;-64
2021/05/11 16:47:12;;;;;;;3.42;1.55;;;;;;;;;;4997158;28;20054;-65
2021/05/11 16:52:56;;;;;;;6.18;2.83;;;;;;;;;;4999665;28;20054;-62
2021/05/11 16:55:42;;;;;;;4.40;1.80;;;;;;;;;;5010060;28;20054;-62
2021/05/11 16:58:27;;;;;;;2.95;1.60;;;;;;;;;;5011144;28;20052;-62
2021/05/11 17:01:12;;;;;;;3.00;1.88;;;;;;;;;;5020492;28;20046;-62
2021/05/11 17:03:58;;;;;;;4.30;2.08;;;;;;;;;;5030540;28;20054;-62
2021/05/11 17:06:43;;;;;;;2.35;1.88;;;;;;;;;;5012184;28;20046;-62
2021/05/11 17:09:28;;;;;;;2.25;1.90;;;;;;;;;;5010341;28;20041;-62
2021/05/11 17:12:14;;;;;;;2.70;2.03;;;;;;;;;;5031891;28;20049;-62
2021/05/11 17:14:59;;;;;;;3.50;2.25;;;;;;;;;;5027052;28;20056;-62
2021/05/11 17:17:46;;;;;;;7.88;2.40;;;;;;;;;;5031808;28;20136;-62
2021/05/11 17:20:31;;;;;;;3.30;2.30;;;;;;;;;;5031856;28;20053;-62
2021/05/11 17:23:16;;;;;;;4.85;2.88;;;;;;;;;;5027315;28;20142;-62
2021/05/11 17:26:01;;;;;;;4.07;2.85;;;;;;;;;;5031361;28;20431;-62
2021/05/11 17:28:47;;;;;;;5.18;2.80;;;;;;;;;;5026983;28;20104;-62
2021/05/11 17:31:33;;;;;;;6.20;3.28;;;;;;;;;;5031397;28;20080;-62
2021/05/11 17:34:18;;;;;;;5.68;3.17;;;;;;;;;;5031692;28;20053;-62
2021/05/11 17:37:04;;;;;;;4.82;3.20;;;;;;;;;;4997631;28;20397;-62
2021/05/11 17:39:49;;;;;;;5.65;3.08;;;;;;;;;;4991934;28;20125;-62
2021/05/11 17:42:34;;;;;;;4.00;3.60;;;;;;;;;;4992662;28;20043;-62
2021/05/11 17:45:19;;;;;;;5.40;4.10;;;;;;;;;;5011266;28;20077;-62
2021/05/11 17:48:05;;;;;;;5.35;4.40;;;;;;;;;;5009119;28;20092;-62
2021/05/11 17:50:51;;;;;;;7.85;4.55;;;;;;;;;;5006352;28;20042;-62
2021/05/11 17:53:36;;;;;;;5.78;4.07;;;;;;;;;;5010939;28;20038;-62
2021/05/11 17:56:29;;;;;;;6.45;4.95;;;;;;;;;;5008662;28;20042;-63
2021/05/11 17:59:14;;;;;;;5.72;5.10;;;;;;;;;;5028462;28;20049;-62
2021/05/11 18:01:59;;;;;;;8.30;5.10;;;;;;;;;;5028592;28;20057;-61
2021/05/11 18:04:44;;;;;;;5.18;4.63;;;;;;;;;;5026479;28;20603;-62
2021/05/11 18:07:30;;;;;;;6.75;5.57;;;;;;;;;;5019272;28;20050;-62
2021/05/11 18:10:15;;;;;;;7.78;5.70;;;;;;;;;;4991096;28;20137;-62
2021/05/11 18:13:01;;;;;;;8.57;5.88;;;;;;;;;;4991153;28;20445;-62
2021/05/11 18:15:46;;;;;;;6.75;6.05;;;;;;;;;;5010860;28;20050;-62
2021/05/11 18:18:31;;;;;;;8.35;6.45;;;;;;;;;;5011282;28;20061;-62
2021/05/11 18:21:16;;;;;;;7.38;6.15;;;;;;;;;;5017511;28;20081;-62
2021/05/11 18:24:02;;;;;;;6.90;6.20;;;;;;;;;;5030059;28;20479;-62
2021/05/11 18:26:47;;;;;;;6.93;6.10;;;;;;;;;;5015596;28;20073;-62
2021/05/11 18:29:33;;;;;;;12.70;8.38;;;;;;;;;;5026868;28;20049;-62
2021/05/11 18:32:18;;;;;;;11.32;9.10;;;;;;;;;;5030713;28;20045;-62
2021/05/11 18:35:03;;;;;;;10.23;7.60;;;;;;;;;;5027543;28;20049;-62
2021/05/11 18:38:04;;;;;;;13.48;9.57;;;;;;;;;;5016609;28;20526;-62
2021/05/11 18:40:49;;;;;;;11.00;9.05;;;;;;;;;;5010181;28;20092;-62
2021/05/11 18:43:34;;;;;;;9.57;8.23;;;;;;;;;;5010325;28;20497;-62
2021/05/11 18:46:19;;;;;;;13.10;9.38;;;;;;;;;;5011123;28;20054;-62
2021/05/11 18:49:05;;;;;;;17.58;11.27;;;;;;;;;;5018339;28;20042;-62
2021/05/11 18:51:50;;;;;;;13.43;10.35;;;;;;;;;;5029897;28;20492;-62
2021/05/11 18:54:35;;;;;;;11.85;9.60;;;;;;;;;;5030243;28;20073;-62
2021/05/11 18:57:21;;;;;;;22.17;15.35;;;;;;;;;;5030176;28;20049;-62
2021/05/11 19:00:07;;;;;;;11.13;9.98;;;;;;;;;;5029591;28;20504;-62
2021/05/11 19:02:52;;;;;;;13.68;11.07;;;;;;;;;;5027836;28;20566;-62
2021/05/11 19:05:38;;;;;;;15.73;13.18;;;;;;;;;;5025493;28;20289;-62
2021/05/11 19:08:23;;;;;;;14.50;10.88;;;;;;;;;;5021930;28;20042;-62
2021/05/11 19:11:08;;;;;;;13.13;10.55;;;;;;;;;;5024590;28;20045;-62
2021/05/11 19:13:54;;;;;;;14.55;10.80;;;;;;;;;;5029394;28;20042;-63
2021/05/11 19:16:42;;;;;;;13.38;11.55;;;;;;;;;;5030639;28;20041;-62
2021/05/11 19:19:28;;;;;;;13.93;11.50;;;;;;;;;;5027804;28;20057;-62
2021/05/11 19:22:14;;;;;;;16.75;11.32;;;;;;;;;;5029799;28;20090;-62
2021/05/11 19:24:59;;;;;;;13.25;11.95;;;;;;;;;;5031508;28;20057;-62
2021/05/11 19:27:44;;;;;;;21.15;13.93;;;;;;;;;;5023001;28;20103;-62
2021/05/11 19:30:29;;;;;;;15.25;11.93;;;;;;;;;;5010734;28;20050;-61
2021/05/11 19:33:14;;;;;;;21.65;14.57;;;;;;;;;;5013018;28;20050;-62
2021/05/11 19:36:00;;;;;;;20.15;13.95;;;;;;;;;;5008768;28;20049;-62
2021/05/11 19:38:45;;;;;;;15.18;12.23;;;;;;;;;;5013818;28;20570;-61
2021/05/11 19:41:31;;;;;;;19.55;13.90;;;;;;;;;;5014256;28;20054;-62
2021/05/11 19:44:16;;;;;;;16.90;13.52;;;;;;;;;;5029020;28;20427;-62
2021/05/11 19:47:02;;;;;;;17.65;12.75;;;;;;;;;;5033436;28;20049;-62
2021/05/11 19:49:47;;;;;;;14.35;12.57;;;;;;;;;;5030748;28;20061;-62
2021/05/11 19:52:32;;;;;;;17.08;13.25;;;;;;;;;;5033296;28;20068;-62
2021/05/11 19:55:18;;;;;;;20.10;13.98;;;;;;;;;;5033770;28;20053;-62
2021/05/11 19:58:03;;;;;;;14.52;12.23;;;;;;;;;;5029773;28;20455;-62
2021/05/11 20:00:49;;;;;;;13.15;11.75;;;;;;;;;;5033036;28;20049;-62
2021/05/11 20:03:34;;;;;;;14.30;12.18;;;;;;;;;;5020418;28;20524;-63
2021/05/11 20:06:19;;;;;;;15.77;11.40;;;;;;;;;;4995247;28;20129;-63
2021/05/11 20:09:05;;;;;;;15.82;11.15;;;;;;;;;;5013136;28;20092;-63
2021/05/11 20:11:50;;;;;;;16.88;12.18;;;;;;;;;;5002955;28;20542;-62
2021/05/11 20:14:36;;;;;;;13.10;11.18;;;;;;;;;;5026793;28;20092;-62
2021/05/11 20:17:21;;;;;;;15.40;11.55;;;;;;;;;;5020656;28;20046;-62
2021/05/11 20:20:07;;;;;;;14.77;12.07;;;;;;;;;;5028828;28;20061;-62
2021/05/11 20:22:52;;;;;;;14.63;10.93;;;;;;;;;;5022805;28;20401;-61
2021/05/11 20:25:37;;;;;;;13.90;11.60;;;;;;;;;;5033127;28;20045;-61